sensor_id;sensor_type;location;lat;lon;timestamp;pressure;altitude;pressure_sealevel;temperature;humidity
77351;BME280;66420;50.246;14.320;2023-03-01T00:01:05;100643.31;;;-6.37;84.12
77351;BME280;66420;50.246;14.320;2023-03-01T00:03:50;100638.53;;;-6.42;84.92
77351;BME280;66420;50.246;14.320;2023-03-01T00:06:35;100638.53;;;-6.50;84.98
77351;BME280;66420;50.246;14.320;2023-03-01T00:09:20;100647.19;;;-6.48;84.56
77351;BME280;66420;50.246;14.320;2023-03-01T00:12:05;100651.88;;;-6.58;84.80
77351;BME280;66420;50.246;14.320;2023-03-01T00:14:50;100642.94;;;-6.65;84.62
77351;BME280;66420;50.246;14.320;2023-03-01T00:17:35;100647.41;;;-6.74;83.98
77351;BME280;66420;50.246;14.320;2023-03-01T00:20:19;100648.59;;;-6.76;85.00
77351;BME280;66420;50.246;14.320;2023-03-01T00:23:03;100653.25;;;-6.70;86.10
77351;BME280;66420;50.246;14.320;2023-03-01T00:25:48;100647.03;;;-6.46;86.08
77351;BME280;66420;50.246;14.320;2023-03-01T00:28:33;100635.22;;;-6.52;85.84
77351;BME280;66420;50.246;14.320;2023-03-01T00:31:21;100631.91;;;-6.62;86.31
77351;BME280;66420;50.246;14.320;2023-03-01T00:34:06;100631.56;;;-6.51;86.69
77351;BME280;66420;50.246;14.320;2023-03-01T00:36:50;100631.72;;;-6.52;86.47
77351;BME280;66420;50.246;14.320;2023-03-01T00:39:35;100629.47;;;-6.72;85.28
77351;BME280;66420;50.246;14.320;2023-03-01T00:42:19;100637.28;;;-6.78;85.56
77351;BME280;66420;50.246;14.320;2023-03-01T00:45:04;100620.00;;;-6.82;86.71
77351;BME280;66420;50.246;14.320;2023-03-01T00:47:49;100623.00;;;-6.85;86.16
77351;BME280;66420;50.246;14.320;2023-03-01T00:50:34;100609.88;;;-6.87;87.21
77351;BME280;66420;50.246;14.320;2023-03-01T00:53:18;100621.34;;;-6.86;86.09
77351;BME280;66420;50.246;14.320;2023-03-01T00:56:05;100609.03;;;-6.87;86.15
77351;BME280;66420;50.246;14.320;2023-03-01T00:58:49;100615.38;;;-6.96;86.16
77351;BME280;66420;50.246;14.320;2023-03-01T01:01:35;100613.91;;;-6.99;86.81
77351;BME280;66420;50.246;14.320;2023-03-01T01:04:20;100619.06;;;-6.97;86.75
77351;BME280;66420;50.246;14.320;2023-03-01T01:07:04;100606.78;;;-7.06;87.22
77351;BME280;66420;50.246;14.320;2023-03-01T01:09:49;100612.75;;;-7.04;87.18
77351;BME280;66420;50.246;14.320;2023-03-01T01:12:34;100617.53;;;-7.00;86.68
77351;BME280;66420;50.246;14.320;2023-03-01T01:15:18;100607.09;;;-7.01;86.84
77351;BME280;66420;50.246;14.320;2023-03-01T01:18:03;100610.41;;;-6.99;88.00
77351;BME280;66420;50.246;14.320;2023-03-01T01:20:48;100610.06;;;-6.96;87.02
77351;BME280;66420;50.246;14.320;2023-03-01T01:23:32;100613.09;;;-7.07;87.28
77351;BME280;66420;50.246;14.320;2023-03-01T01:26:20;100609.44;;;-7.06;87.26
77351;BME280;66420;50.246;14.320;2023-03-01T01:29:05;100603.75;;;-7.03;88.11
77351;BME280;66420;50.246;14.320;2023-03-01T01:31:50;100614.06;;;-7.00;86.74
77351;BME280;66420;50.246;14.320;2023-03-01T01:34:35;100605.63;;;-7.12;87.36
77351;BME280;66420;50.246;14.320;2023-03-01T01:37:19;100600.13;;;-7.19;86.65
77351;BME280;66420;50.246;14.320;2023-03-01T01:40:04;100601.16;;;-7.20;87.11
77351;BME280;66420;50.246;14.320;2023-03-01T01:42:49;100600.81;;;-7.25;87.56
77351;BME280;66420;50.246;14.320;2023-03-01T01:45:35;100602.16;;;-7.29;87.79
77351;BME280;66420;50.246;14.320;2023-03-01T01:48:23;100596.16;;;-7.31;88.55
77351;BME280;66420;50.246;14.320;2023-03-01T01:51:14;100597.47;;;-7.27;88.66
77351;BME280;66420;50.246;14.320;2023-03-01T01:54:01;100596.84;;;-7.29;87.90
77351;BME280;66420;50.246;14.320;2023-03-01T01:56:57;100599.50;;;-7.29;88.28
77351;BME280;66420;50.246;14.320;2023-03-01T01:59:48;100589.00;;;-7.22;88.11
77351;BME280;66420;50.246;14.320;2023-03-01T02:02:36;100579.69;;;-7.18;88.05
77351;BME280;66420;50.246;14.320;2023-03-01T02:05:28;100581.69;;;-7.20;87.84
77351;BME280;66420;50.246;14.320;2023-03-01T02:08:19;100574.22;;;-7.25;88.21
77351;BME280;66420;50.246;14.320;2023-03-01T02:11:05;100576.19;;;-7.19;88.53
77351;BME280;66420;50.246;14.320;2023-03-01T02:13:50;100568.22;;;-7.19;88.36
77351;BME280;66420;50.246;14.320;2023-03-01T02:16:34;100576.22;;;-7.27;87.60
77351;BME280;66420;50.246;14.320;2023-03-01T02:19:44;100568.41;;;-7.36;88.61
77351;BME280;66420;50.246;14.320;2023-03-01T02:22:33;100572.75;;;-7.43;88.52
77351;BME280;66420;50.246;14.320;2023-03-01T02:31:00;100569.91;;;-7.50;88.75
77351;BME280;66420;50.246;14.320;2023-03-01T02:34:05;100571.25;;;-7.46;88.86
77351;BME280;66420;50.246;14.320;2023-03-01T02:36:55;100570.06;;;-7.51;87.71
77351;BME280;66420;50.246;14.320;2023-03-01T02:39:47;100568.28;;;-7.59;88.24
77351;BME280;66420;50.246;14.320;2023-03-01T02:42:45;100564.28;;;-7.71;87.62
77351;BME280;66420;50.246;14.320;2023-03-01T02:45:31;100563.31;;;-7.70;88.81
77351;BME280;66420;50.246;14.320;2023-03-01T02:48:17;100562.28;;;-7.69;88.23
77351;BME280;66420;50.246;14.320;2023-03-01T02:51:18;100559.63;;;-7.69;89.16
77351;BME280;66420;50.246;14.320;2023-03-01T02:54:22;100564.94;;;-7.69;88.83
77351;BME280;66420;50.246;14.320;2023-03-01T02:57:10;100559.16;;;-7.81;89.47
77351;BME280;66420;50.246;14.320;2023-03-01T02:59:57;100565.09;;;-7.79;88.92
77351;BME280;66420;50.246;14.320;2023-03-01T03:02:43;100567.94;;;-7.80;89.88
77351;BME280;66420;50.246;14.320;2023-03-01T03:05:29;100567.25;;;-7.74;89.66
77351;BME280;66420;50.246;14.320;2023-03-01T03:08:15;100567.94;;;-7.80;89.78
77351;BME280;66420;50.246;14.320;2023-03-01T03:11:08;100567.13;;;-7.89;89.49
77351;BME280;66420;50.246;14.320;2023-03-01T03:13:52;100571.44;;;-7.72;89.40
77351;BME280;66420;50.246;14.320;2023-03-01T03:16:37;100568.63;;;-7.70;89.35
77351;BME280;66420;50.246;14.320;2023-03-01T03:19:21;100558.81;;;-7.78;89.82
77351;BME280;66420;50.246;14.320;2023-03-01T03:22:06;100568.59;;;-7.78;88.81
77351;BME280;66420;50.246;14.320;2023-03-01T03:24:53;100560.28;;;-7.83;89.16
77351;BME280;66420;50.246;14.320;2023-03-01T03:27:39;100559.16;;;-7.81;88.68
77351;BME280;66420;50.246;14.320;2023-03-01T03:30:30;100553.34;;;-7.84;89.54
77351;BME280;66420;50.246;14.320;2023-03-01T03:33:15;100550.69;;;-7.84;89.93
77351;BME280;66420;50.246;14.320;2023-03-01T03:36:00;100549.34;;;-7.88;89.16
77351;BME280;66420;50.246;14.320;2023-03-01T03:38:44;100537.38;;;-7.92;89.61
77351;BME280;66420;50.246;14.320;2023-03-01T03:41:29;100550.34;;;-7.97;90.67
77351;BME280;66420;50.246;14.320;2023-03-01T03:44:14;100528.09;;;-7.96;90.51
77351;BME280;66420;50.246;14.320;2023-03-01T03:46:58;100523.09;;;-7.91;89.52
77351;BME280;66420;50.246;14.320;2023-03-01T03:49:43;100524.44;;;-7.87;90.87
77351;BME280;66420;50.246;14.320;2023-03-01T03:52:27;100518.81;;;-7.84;90.67
77351;BME280;66420;50.246;14.320;2023-03-01T03:55:12;100514.97;;;-7.90;89.90
77351;BME280;66420;50.246;14.320;2023-03-01T03:57:58;100519.28;;;-7.81;89.96
77351;BME280;66420;50.246;14.320;2023-03-01T04:00:47;100520.59;;;-7.69;90.98
77351;BME280;66420;50.246;14.320;2023-03-01T04:03:32;100511.78;;;-7.69;91.12
77351;BME280;66420;50.246;14.320;2023-03-01T04:06:17;100506.16;;;-7.74;91.19
77351;BME280;66420;50.246;14.320;2023-03-01T04:09:02;100516.78;;;-7.66;90.00
77351;BME280;66420;50.246;14.320;2023-03-01T04:11:47;100523.56;;;-7.55;90.04
77351;BME280;66420;50.246;14.320;2023-03-01T04:14:31;100518.63;;;-7.67;91.12
77351;BME280;66420;50.246;14.320;2023-03-01T04:17:15;100518.81;;;-7.84;89.93
77351;BME280;66420;50.246;14.320;2023-03-01T04:20:00;100523.13;;;-7.99;89.51
77351;BME280;66420;50.246;14.320;2023-03-01T04:23:00;100527.75;;;-8.01;89.50
77351;BME280;66420;50.246;14.320;2023-03-01T04:25:56;100522.94;;;-8.06;90.58
77351;BME280;66420;50.246;14.320;2023-03-01T04:28:42;100531.56;;;-8.12;89.56
77351;BME280;66420;50.246;14.320;2023-03-01T04:31:30;100526.06;;;-8.19;90.35
77351;BME280;66420;50.246;14.320;2023-03-01T04:34:14;100523.28;;;-8.17;90.18
77351;BME280;66420;50.246;14.320;2023-03-01T04:36:58;100529.72;;;-8.20;90.58
77351;BME280;66420;50.246;14.320;2023-03-01T04:39:43;100529.41;;;-8.17;90.62
77351;BME280;66420;50.246;14.320;2023-03-01T04:42:29;100535.03;;;-8.20;91.54
77351;BME280;66420;50.246;14.320;2023-03-01T04:45:14;100536.88;;;-8.12;91.34
77351;BME280;66420;50.246;14.320;2023-03-01T04:47:59;100541.84;;;-8.01;91.47
77351;BME280;66420;50.246;14.320;2023-03-01T04:50:43;100536.06;;;-8.04;90.40
77351;BME280;66420;50.246;14.320;2023-03-01T04:53:28;100532.91;;;-8.08;91.63
77351;BME280;66420;50.246;14.320;2023-03-01T04:56:13;100537.53;;;-8.10;90.52
77351;BME280;66420;50.246;14.320;2023-03-01T04:59:02;100530.09;;;-7.98;91.59
77351;BME280;66420;50.246;14.320;2023-03-01T05:01:53;100522.78;;;-7.96;90.22
77351;BME280;66420;50.246;14.320;2023-03-01T05:04:41;100528.56;;;-8.09;90.38
77351;BME280;66420;50.246;14.320;2023-03-01T05:07:26;100519.13;;;-8.03;90.64
77351;BME280;66420;50.246;14.320;2023-03-01T05:10:11;100532.56;;;-8.05;91.94
77351;BME280;66420;50.246;14.320;2023-03-01T05:12:57;100522.44;;;-8.34;90.71
77351;BME280;66420;50.246;14.320;2023-03-01T05:15:42;100529.06;;;-8.46;89.68
77351;BME280;66420;50.246;14.320;2023-03-01T05:18:28;100528.88;;;-8.28;90.61
77351;BME280;66420;50.246;14.320;2023-03-01T05:21:14;100527.56;;;-8.24;91.04
77351;BME280;66420;50.246;14.320;2023-03-01T05:24:02;100521.94;;;-8.29;91.67
77351;BME280;66420;50.246;14.320;2023-03-01T05:26:47;100536.00;;;-8.29;90.43
77351;BME280;66420;50.246;14.320;2023-03-01T05:29:32;100529.75;;;-8.36;89.89
77351;BME280;66420;50.246;14.320;2023-03-01T05:32:18;100531.06;;;-8.32;90.96
77351;BME280;66420;50.246;14.320;2023-03-01T05:35:03;100522.59;;;-8.27;90.17
77351;BME280;66420;50.246;14.320;2023-03-01T05:37:49;100521.09;;;-8.22;91.90
77351;BME280;66420;50.246;14.320;2023-03-01T05:40:34;100518.59;;;-8.23;91.49
77351;BME280;66420;50.246;14.320;2023-03-01T05:43:19;100511.47;;;-8.23;91.58
77351;BME280;66420;50.246;14.320;2023-03-01T05:46:03;100506.50;;;-8.18;90.56
77351;BME280;66420;50.246;14.320;2023-03-01T05:48:48;100505.19;;;-8.14;91.74
77351;BME280;66420;50.246;14.320;2023-03-01T05:51:32;100511.31;;;-8.05;91.68
77351;BME280;66420;50.246;14.320;2023-03-01T05:54:19;100502.84;;;-7.92;91.29
77351;BME280;66420;50.246;14.320;2023-03-01T05:57:04;100521.44;;;-8.00;90.58
77351;BME280;66420;50.246;14.320;2023-03-01T05:59:48;100519.63;;;-8.08;90.08
77351;BME280;66420;50.246;14.320;2023-03-01T06:02:32;100520.13;;;-7.96;91.19
77351;BME280;66420;50.246;14.320;2023-03-01T06:05:17;100523.44;;;-7.94;90.67
77351;BME280;66420;50.246;14.320;2023-03-01T06:08:02;100527.94;;;-7.95;89.78
77351;BME280;66420;50.246;14.320;2023-03-01T06:10:47;100537.91;;;-7.89;89.21
77351;BME280;66420;50.246;14.320;2023-03-01T06:13:32;100533.56;;;-7.82;90.96
77351;BME280;66420;50.246;14.320;2023-03-01T06:16:17;100526.09;;;-7.78;88.79
77351;BME280;66420;50.246;14.320;2023-03-01T06:19:01;100535.38;;;-7.74;89.90
77351;BME280;66420;50.246;14.320;2023-03-01T06:21:46;100532.06;;;-7.68;89.36
77351;BME280;66420;50.246;14.320;2023-03-01T06:24:30;100550.66;;;-7.52;89.01
77351;BME280;66420;50.246;14.320;2023-03-01T06:27:15;100543.66;;;-7.37;88.50
77351;BME280;66420;50.246;14.320;2023-03-01T06:30:00;100530.50;;;-7.22;88.24
77351;BME280;66420;50.246;14.320;2023-03-01T06:32:46;100524.81;;;-7.11;89.19
77351;BME280;66420;50.246;14.320;2023-03-01T06:35:31;100533.56;;;-6.94;89.20
77351;BME280;66420;50.246;14.320;2023-03-01T06:38:16;100537.19;;;-6.79;88.18
77351;BME280;66420;50.246;14.320;2023-03-01T06:41:03;100529.25;;;-6.56;88.25
77351;BME280;66420;50.246;14.320;2023-03-01T06:43:48;100535.78;;;-6.36;87.77
77351;BME280;66420;50.246;14.320;2023-03-01T06:46:35;100543.41;;;-5.65;86.87
77351;BME280;66420;50.246;14.320;2023-03-01T06:49:20;100546.63;;;-4.88;83.00
77351;BME280;66420;50.246;14.320;2023-03-01T06:52:05;100527.09;;;-3.81;78.48
77351;BME280;66420;50.246;14.320;2023-03-01T06:54:49;100528.56;;;-2.95;77.22
77351;BME280;66420;50.246;14.320;2023-03-01T06:57:34;100524.78;;;-2.12;74.92
77351;BME280;66420;50.246;14.320;2023-03-01T07:00:20;100530.81;;;-1.31;73.23
77351;BME280;66420;50.246;14.320;2023-03-01T07:03:04;100528.34;;;-0.42;71.30
77351;BME280;66420;50.246;14.320;2023-03-01T07:05:49;100532.50;;;-0.08;67.90
77351;BME280;66420;50.246;14.320;2023-03-01T07:08:36;100531.69;;;0.54;66.45
77351;BME280;66420;50.246;14.320;2023-03-01T07:11:22;100528.41;;;0.95;64.10
77351;BME280;66420;50.246;14.320;2023-03-01T07:14:07;100538.72;;;1.41;63.54
77351;BME280;66420;50.246;14.320;2023-03-01T07:16:53;100549.03;;;2.10;61.85
77351;BME280;66420;50.246;14.320;2023-03-01T07:19:38;100531.81;;;2.23;60.92
77351;BME280;66420;50.246;14.320;2023-03-01T07:22:23;100540.13;;;2.51;59.18
77351;BME280;66420;50.246;14.320;2023-03-01T07:25:08;100531.00;;;1.93;60.52
77351;BME280;66420;50.246;14.320;2023-03-01T07:27:53;100530.59;;;2.07;58.06
77351;BME280;66420;50.246;14.320;2023-03-01T07:30:38;100531.34;;;2.26;58.00
77351;BME280;66420;50.246;14.320;2023-03-01T07:33:25;100534.84;;;2.56;56.67
77351;BME280;66420;50.246;14.320;2023-03-01T07:36:10;100539.09;;;3.22;56.73
77351;BME280;66420;50.246;14.320;2023-03-01T07:38:54;100530.50;;;3.88;53.53
77351;BME280;66420;50.246;14.320;2023-03-01T07:41:39;100520.50;;;4.51;51.76
77351;BME280;66420;50.246;14.320;2023-03-01T07:44:24;100518.78;;;4.95;48.87
77351;BME280;66420;50.246;14.320;2023-03-01T07:47:08;100519.94;;;3.75;52.36
77351;BME280;66420;50.246;14.320;2023-03-01T07:49:53;100524.75;;;3.22;53.90
77351;BME280;66420;50.246;14.320;2023-03-01T07:52:38;100510.09;;;3.97;50.93
77351;BME280;66420;50.246;14.320;2023-03-01T07:55:22;100516.50;;;4.70;49.87
77351;BME280;66420;50.246;14.320;2023-03-01T07:58:07;100515.16;;;5.66;47.82
77351;BME280;66420;50.246;14.320;2023-03-01T08:00:52;100512.44;;;6.68;45.92
77351;BME280;66420;50.246;14.320;2023-03-01T08:03:37;100512.97;;;7.49;44.05
77351;BME280;66420;50.246;14.320;2023-03-01T08:06:22;100516.56;;;7.12;42.99
77351;BME280;66420;50.246;14.320;2023-03-01T08:09:06;100516.78;;;7.01;43.66
77351;BME280;66420;50.246;14.320;2023-03-01T08:11:52;100516.00;;;8.40;41.96
77351;BME280;66420;50.246;14.320;2023-03-01T08:14:37;100516.03;;;8.60;40.15
77351;BME280;66420;50.246;14.320;2023-03-01T08:17:22;100515.56;;;7.29;42.55
77351;BME280;66420;50.246;14.320;2023-03-01T08:20:07;100502.25;;;7.32;43.22
77351;BME280;66420;50.246;14.320;2023-03-01T08:22:53;100501.19;;;8.11;42.90
77351;BME280;66420;50.246;14.320;2023-03-01T08:25:38;100491.66;;;9.19;39.27
77351;BME280;66420;50.246;14.320;2023-03-01T08:28:23;100484.63;;;9.77;38.83
77351;BME280;66420;50.246;14.320;2023-03-01T08:34:12;100481.75;;;10.08;38.85
77351;BME280;66420;50.246;14.320;2023-03-01T08:36:56;100483.09;;;9.51;38.46
77351;BME280;66420;50.246;14.320;2023-03-01T08:39:41;100486.44;;;9.38;39.62
77351;BME280;66420;50.246;14.320;2023-03-01T08:42:26;100481.19;;;10.06;39.09
77351;BME280;66420;50.246;14.320;2023-03-01T08:45:14;100485.75;;;10.93;37.57
77351;BME280;66420;50.246;14.320;2023-03-01T08:48:02;100487.63;;;10.35;36.96
77351;BME280;66420;50.246;14.320;2023-03-01T08:50:47;100497.28;;;11.19;36.02
77351;BME280;66420;50.246;14.320;2023-03-01T08:53:31;100487.81;;;12.39;32.38
77351;BME280;66420;50.246;14.320;2023-03-01T08:56:16;100483.81;;;12.13;33.60
77351;BME280;66420;50.246;14.320;2023-03-01T08:59:02;100483.00;;;11.70;32.58
77351;BME280;66420;50.246;14.320;2023-03-01T09:01:47;100473.66;;;12.13;33.89
77351;BME280;66420;50.246;14.320;2023-03-01T09:04:31;100469.34;;;12.26;32.60
77351;BME280;66420;50.246;14.320;2023-03-01T09:07:17;100464.59;;;11.94;33.06
77351;BME280;66420;50.246;14.320;2023-03-01T09:10:02;100462.53;;;12.05;32.07
77351;BME280;66420;50.246;14.320;2023-03-01T09:12:47;100464.66;;;10.65;34.29
77351;BME280;66420;50.246;14.320;2023-03-01T09:15:31;100458.97;;;11.62;33.85
77351;BME280;66420;50.246;14.320;2023-03-01T09:18:17;100458.44;;;12.02;33.16
77351;BME280;66420;50.246;14.320;2023-03-01T09:21:10;100458.84;;;11.72;33.09
77351;BME280;66420;50.246;14.320;2023-03-01T09:23:56;100451.13;;;13.13;31.53
77351;BME280;66420;50.246;14.320;2023-03-01T09:26:42;100452.91;;;10.93;33.89
77351;BME280;66420;50.246;14.320;2023-03-01T09:29:27;100444.19;;;12.37;33.69
77351;BME280;66420;50.246;14.320;2023-03-01T09:32:11;100439.84;;;13.56;29.43
77351;BME280;66420;50.246;14.320;2023-03-01T09:34:56;100433.66;;;13.37;30.20
77351;BME280;66420;50.246;14.320;2023-03-01T09:37:50;100432.19;;;14.16;29.04
77351;BME280;66420;50.246;14.320;2023-03-01T09:40:35;100434.91;;;13.80;29.90
77351;BME280;66420;50.246;14.320;2023-03-01T09:43:36;100434.47;;;13.23;31.23
77351;BME280;66420;50.246;14.320;2023-03-01T09:46:26;100437.09;;;12.18;31.74
77351;BME280;66420;50.246;14.320;2023-03-01T09:49:26;100438.34;;;13.99;29.23
77351;BME280;66420;50.246;14.320;2023-03-01T09:52:34;100426.75;;;12.93;30.49
77351;BME280;66420;50.246;14.320;2023-03-01T09:55:40;100427.44;;;13.17;30.64
77351;BME280;66420;50.246;14.320;2023-03-01T10:04:48;100406.34;;;12.34;31.52
77351;BME280;66420;50.246;14.320;2023-03-01T10:10:47;100414.09;;;15.30;27.48
77351;BME280;66420;50.246;14.320;2023-03-01T10:13:48;100407.22;;;13.08;29.80
77351;BME280;66420;50.246;14.320;2023-03-01T10:16:57;100400.69;;;12.77;31.63
77351;BME280;66420;50.246;14.320;2023-03-01T10:19:45;100396.91;;;14.40;28.96
77351;BME280;66420;50.246;14.320;2023-03-01T10:22:30;100398.25;;;15.04;27.57
77351;BME280;66420;50.246;14.320;2023-03-01T10:25:29;100399.16;;;15.70;26.38
77351;BME280;66420;50.246;14.320;2023-03-01T10:28:35;100393.13;;;15.20;27.12
77351;BME280;66420;50.246;14.320;2023-03-01T10:31:26;100380.88;;;14.64;27.63
77351;BME280;66420;50.246;14.320;2023-03-01T10:34:17;100373.50;;;15.22;26.55
77351;BME280;66420;50.246;14.320;2023-03-01T10:40:06;100391.34;;;13.60;28.02
77351;BME280;66420;50.246;14.320;2023-03-01T10:42:58;100387.84;;;15.41;25.98
77351;BME280;66420;50.246;14.320;2023-03-01T10:45:43;100382.75;;;15.65;26.24
77351;BME280;66420;50.246;14.320;2023-03-01T10:48:28;100378.22;;;14.51;27.18
77351;BME280;66420;50.246;14.320;2023-03-01T10:51:17;100377.81;;;13.50;30.00
77351;BME280;66420;50.246;14.320;2023-03-01T10:54:06;100375.44;;;15.61;27.14
77351;BME280;66420;50.246;14.320;2023-03-01T10:57:02;100367.13;;;14.42;26.90
77351;BME280;66420;50.246;14.320;2023-03-01T11:00:01;100359.72;;;14.29;28.92
77351;BME280;66420;50.246;14.320;2023-03-01T11:05:56;100353.34;;;13.62;28.30
77351;BME280;66420;50.246;14.320;2023-03-01T11:08:46;100351.28;;;12.44;29.92
77351;BME280;66420;50.246;14.320;2023-03-01T11:11:34;100350.59;;;15.13;27.88
77351;BME280;66420;50.246;14.320;2023-03-01T11:14:26;100350.34;;;14.83;27.15
77351;BME280;66420;50.246;14.320;2023-03-01T11:17:21;100342.28;;;14.95;27.21
77351;BME280;66420;50.246;14.320;2023-03-01T11:20:19;100340.28;;;14.79;27.46
77351;BME280;66420;50.246;14.320;2023-03-01T11:23:09;100326.16;;;16.57;26.60
77351;BME280;66420;50.246;14.320;2023-03-01T11:26:00;100324.78;;;16.80;25.54
77351;BME280;66420;50.246;14.320;2023-03-01T11:28:50;100327.53;;;15.82;27.12
77351;BME280;66420;50.246;14.320;2023-03-01T11:31:36;100318.56;;;16.28;26.32
77351;BME280;66420;50.246;14.320;2023-03-01T11:34:31;100309.94;;;13.09;28.53
77351;BME280;66420;50.246;14.320;2023-03-01T11:37:37;100307.88;;;14.00;28.82
77351;BME280;66420;50.246;14.320;2023-03-01T11:40:27;100307.66;;;15.20;27.27
77351;BME280;66420;50.246;14.320;2023-03-01T12:17:39;100266.09;;;12.91;30.63
77351;BME280;66420;50.246;14.320;2023-03-01T12:26:39;100255.94;;;13.63;29.64
77351;BME280;66420;50.246;14.320;2023-03-01T12:35:54;100251.34;;;14.25;27.54
77351;BME280;66420;50.246;14.320;2023-03-01T12:39:10;100238.41;;;15.82;28.22
77351;BME280;66420;50.246;14.320;2023-03-01T12:48:40;100232.28;;;13.17;29.76
77351;BME280;66420;50.246;14.320;2023-03-01T12:51:30;100234.31;;;13.12;29.91
77351;BME280;66420;50.246;14.320;2023-03-01T12:54:22;100234.13;;;14.42;29.21
77351;BME280;66420;50.246;14.320;2023-03-01T12:57:33;100234.31;;;12.16;30.77
77351;BME280;66420;50.246;14.320;2023-03-01T13:00:44;100230.19;;;12.60;30.32
77351;BME280;66420;50.246;14.320;2023-03-01T13:07:18;100214.41;;;12.79;31.32
77351;BME280;66420;50.246;14.320;2023-03-01T13:10:24;100211.06;;;13.76;29.82
77351;BME280;66420;50.246;14.320;2023-03-01T13:15:56;100211.84;;;12.01;31.63
77351;BME280;66420;50.246;14.320;2023-03-01T13:18:41;100213.41;;;12.48;31.36
77351;BME280;66420;50.246;14.320;2023-03-01T13:21:30;100212.00;;;11.77;32.27
77351;BME280;66420;50.246;14.320;2023-03-01T13:24:39;100204.84;;;12.08;31.91
77351;BME280;66420;50.246;14.320;2023-03-01T13:27:24;100201.69;;;12.42;31.94
77351;BME280;66420;50.246;14.320;2023-03-01T13:39:28;100189.50;;;11.42;34.47
77351;BME280;66420;50.246;14.320;2023-03-01T13:42:38;100199.97;;;11.03;34.16
77351;BME280;66420;50.246;14.320;2023-03-01T13:45:39;100182.66;;;10.89;34.62
77351;BME280;66420;50.246;14.320;2023-03-01T13:48:28;100177.78;;;10.86;34.47
77351;BME280;66420;50.246;14.320;2023-03-01T13:51:14;100179.44;;;10.82;34.06
77351;BME280;66420;50.246;14.320;2023-03-01T13:53:59;100172.19;;;10.91;34.16
77351;BME280;66420;50.246;14.320;2023-03-01T13:56:45;100191.91;;;10.50;35.07
77351;BME280;66420;50.246;14.320;2023-03-01T13:59:30;100188.59;;;9.48;35.99
77351;BME280;66420;50.246;14.320;2023-03-01T14:02:14;100178.19;;;9.16;36.52
77351;BME280;66420;50.246;14.320;2023-03-01T14:05:00;100177.47;;;8.52;38.40
77351;BME280;66420;50.246;14.320;2023-03-01T14:07:51;100184.03;;;8.45;38.27
77351;BME280;66420;50.246;14.320;2023-03-01T14:10:54;100177.53;;;8.21;38.66
77351;BME280;66420;50.246;14.320;2023-03-01T14:14:14;100176.56;;;7.87;40.24
77351;BME280;66420;50.246;14.320;2023-03-01T14:20:07;100175.09;;;8.25;40.29
77351;BME280;66420;50.246;14.320;2023-03-01T14:22:59;100167.84;;;7.75;40.31
77351;BME280;66420;50.246;14.320;2023-03-01T14:25:47;100172.50;;;7.69;40.76
77351;BME280;66420;50.246;14.320;2023-03-01T14:28:34;100173.84;;;7.77;41.21
77351;BME280;66420;50.246;14.320;2023-03-01T14:31:36;100173.59;;;7.07;41.28
77351;BME280;66420;50.246;14.320;2023-03-01T14:34:23;100171.97;;;7.27;41.48
77351;BME280;66420;50.246;14.320;2023-03-01T14:37:27;100165.41;;;7.43;41.70
77351;BME280;66420;50.246;14.320;2023-03-01T14:40:25;100156.41;;;6.97;40.89
77351;BME280;66420;50.246;14.320;2023-03-01T14:43:12;100146.31;;;6.72;41.81
77351;BME280;66420;50.246;14.320;2023-03-01T14:46:01;100147.41;;;6.76;41.55
77351;BME280;66420;50.246;14.320;2023-03-01T14:48:51;100148.97;;;6.52;41.70
77351;BME280;66420;50.246;14.320;2023-03-01T14:51:39;100138.88;;;6.32;42.40
77351;BME280;66420;50.246;14.320;2023-03-01T14:54:49;100138.09;;;6.52;42.54
77351;BME280;66420;50.246;14.320;2023-03-01T14:57:32;100141.38;;;6.54;42.30
77351;BME280;66420;50.246;14.320;2023-03-01T15:00:21;100142.16;;;6.39;42.61
77351;BME280;66420;50.246;14.320;2023-03-01T15:03:11;100138.81;;;6.22;43.01
77351;BME280;66420;50.246;14.320;2023-03-01T15:05:58;100140.22;;;6.30;42.63
77351;BME280;66420;50.246;14.320;2023-03-01T15:08:52;100138.00;;;6.21;43.61
77351;BME280;66420;50.246;14.320;2023-03-01T15:11:37;100152.69;;;6.20;43.34
77351;BME280;66420;50.246;14.320;2023-03-01T15:14:40;100143.69;;;6.15;44.59
77351;BME280;66420;50.246;14.320;2023-03-01T15:17:30;100144.47;;;6.10;43.57
77351;BME280;66420;50.246;14.320;2023-03-01T15:20:18;100160.75;;;6.05;43.48
77351;BME280;66420;50.246;14.320;2023-03-01T15:23:18;100162.06;;;5.98;43.39
77351;BME280;66420;50.246;14.320;2023-03-01T15:26:03;100155.41;;;5.78;43.51
77351;BME280;66420;50.246;14.320;2023-03-01T15:28:50;100155.69;;;5.82;44.54
77351;BME280;66420;50.246;14.320;2023-03-01T15:31:37;100153.75;;;5.72;43.98
77351;BME280;66420;50.246;14.320;2023-03-01T15:34:36;100153.16;;;5.65;44.51
77351;BME280;66420;50.246;14.320;2023-03-01T15:37:44;100152.53;;;5.53;44.93
77351;BME280;66420;50.246;14.320;2023-03-01T15:40:30;100160.34;;;5.45;45.68
77351;BME280;66420;50.246;14.320;2023-03-01T15:43:46;100165.75;;;5.40;45.65
77351;BME280;66420;50.246;14.320;2023-03-01T15:46:33;100161.81;;;5.25;45.54
77351;BME280;66420;50.246;14.320;2023-03-01T15:52:29;100161.75;;;5.15;45.96
77351;BME280;66420;50.246;14.320;2023-03-01T15:55:21;100156.25;;;5.10;47.13
77351;BME280;66420;50.246;14.320;2023-03-01T15:58:17;100150.91;;;4.88;47.22
77351;BME280;66420;50.246;14.320;2023-03-01T16:01:02;100148.34;;;4.77;47.31
77351;BME280;66420;50.246;14.320;2023-03-01T16:03:46;100152.06;;;4.66;47.65
77351;BME280;66420;50.246;14.320;2023-03-01T16:06:31;100155.47;;;4.56;48.18
77351;BME280;66420;50.246;14.320;2023-03-01T16:09:16;100153.00;;;4.55;48.31
77351;BME280;66420;50.246;14.320;2023-03-01T16:12:01;100145.91;;;4.49;49.25